Florence Regional Airport Florence US
ICAO: KFLO
IATA: FLO
Category: Medium
Scheduled Services: Yes

Elevation: 146 ft
TransAlt. 18000 ft.

Airport Communications:
APP DEP:118.6
ATIS:123.625
CTAF:125.1
GND/CLNC DEL:121.9
ANDERSON RDO:122.6
TWR:125.1
UNICOM:122.95

KFLO Zoom In..

Runways:

(A) RW 01 length 6000 ft width 150 ft
---- / hdg 6

(B) RW 09 length 6502 ft width 150 ft
ILS 109.10 / hdg 89

(C) RW 19 length 6000 ft width 150 ft
---- / hdg 186

(D) RW 27 length 6502 ft width 150 ft
---- / hdg 269

Location; KFLO
Day. 26 / Time. 03.53 Zulu
* Altimeter: 30.02
* Temperature: 22° c. 71.6°f.
* Wind from: 180° Speed 03 kn.
Dewpoint: 21° c.
Visibility: 10 Statute Miles.
Clouds: Clear (automated report).

KFLO 260353Z AUTO 18003KT 10SM CLR 22/21 A3002 RMK AO2 SLP164 T02220206


Wind From 180°
Speed 03 kn.

 
 
jpsmedia.com for Web Design SOUNDCLOUD worldairports.se 2018   terms of use